Time;durP1;ratioP1;P1;durP2;ratioP2;P2;SDS_P1;SDS_P2;PMS_P1;PMS_P2;Temp;Humidity;BMP_temperature;BMP_pressure;BME280_temperature;BME280_humidity;BME280_pressure;Samples;Min_cycle;Max_cycle;Signal;HPM_P1;HPM_P2
2021/12/08 00:00:25;;;;;;;17.92;8.50;;;3.60;99.90;;;;;;4985635;28;20018;-73
2021/12/08 00:02:51;;;;;;;20.58;9.60;;;3.70;99.90;;;;;;4987531;28;20096;-72
2021/12/08 00:05:19;;;;;;;20.08;9.05;;;3.70;99.90;;;;;;4983488;28;20431;-72
2021/12/08 00:07:46;;;;;;;15.18;8.73;;;3.70;99.90;;;;;;4982392;28;20154;-73
2021/12/08 00:10:28;;;;;;;19.70;9.23;;;3.70;99.90;;;;;;4984727;28;20022;-73
2021/12/08 00:13:05;;;;;;;18.05;8.73;;;3.70;99.90;;;;;;4982811;28;20448;-73
2021/12/08 00:15:44;;;;;;;15.55;7.55;;;3.70;99.90;;;;;;4986557;28;20022;-73
2021/12/08 00:18:18;;;;;;;15.07;7.95;;;3.70;99.90;;;;;;4988357;28;20408;-73
2021/12/08 00:20:46;;;;;;;19.17;8.52;;;3.70;99.90;;;;;;4971597;28;20105;-72
2021/12/08 00:23:13;;;;;;;19.73;8.50;;;3.70;99.90;;;;;;4983048;28;20027;-72
2021/12/08 00:25:39;;;;;;;20.45;9.18;;;3.70;99.90;;;;;;4982527;28;20018;-73
2021/12/08 00:28:06;;;;;;;17.83;9.02;;;3.70;99.90;;;;;;4978557;28;20125;-73
2021/12/08 00:30:32;;;;;;;16.15;8.95;;;3.70;99.90;;;;;;4976328;28;20088;-73
2021/12/08 00:32:59;;;;;;;16.73;8.60;;;3.70;99.90;;;;;;4976033;28;20027;-72
2021/12/08 00:35:27;;;;;;;14.48;8.15;;;3.70;99.90;;;;;;4975470;28;20031;-73
2021/12/08 00:37:53;;;;;;;17.08;8.15;;;3.60;99.90;;;;;;4974864;28;20069;-72
2021/12/08 00:40:19;;;;;;;17.30;8.48;;;3.60;99.90;;;;;;4975779;28;20380;-73
2021/12/08 00:42:46;;;;;;;21.92;9.27;;;3.60;99.90;;;;;;4976387;28;20023;-73
2021/12/08 00:45:14;;;;;;;23.58;9.32;;;3.60;99.90;;;;;;4974746;28;20417;-74
2021/12/08 00:47:40;;;;;;;16.42;8.63;;;3.60;99.90;;;;;;4976059;28;20113;-73
2021/12/08 00:50:09;;;;;;;16.98;8.32;;;3.70;99.90;;;;;;4975892;28;20125;-73
2021/12/08 00:52:35;;;;;;;15.15;8.30;;;3.60;99.90;;;;;;4975576;28;20027;-73
2021/12/08 00:55:03;;;;;;;16.55;9.05;;;3.70;99.90;;;;;;4974280;28;20106;-73
2021/12/08 00:57:28;;;;;;;16.23;8.98;;;3.70;99.90;;;;;;4975843;28;20026;-73
2021/12/08 00:59:54;;;;;;;20.70;9.82;;;3.70;99.90;;;;;;4976134;28;20122;-73
2021/12/08 01:02:20;;;;;;;20.98;9.18;;;3.70;99.90;;;;;;4975737;28;20038;-73
2021/12/08 01:04:45;;;;;;;20.27;9.70;;;3.70;99.90;;;;;;4974760;28;20392;-74
2021/12/08 01:07:11;;;;;;;18.13;9.10;;;3.70;99.90;;;;;;4975945;28;20421;-73
2021/12/08 01:09:37;;;;;;;16.40;8.55;;;3.60;99.90;;;;;;4976399;28;20045;-73
2021/12/08 01:12:04;;;;;;;17.23;9.15;;;3.60;99.90;;;;;;4975945;28;20031;-73
2021/12/08 01:14:34;;;;;;;22.25;9.55;;;3.60;99.90;;;;;;4977782;28;20031;-73
2021/12/08 01:17:01;;;;;;;20.13;8.75;;;3.60;99.90;;;;;;4982783;28;20022;-72
2021/12/08 01:19:27;;;;;;;25.23;9.93;;;3.60;99.90;;;;;;4989450;28;20034;-72
2021/12/08 01:21:53;;;;;;;20.33;9.98;;;3.60;99.90;;;;;;4977265;28;20038;-73
2021/12/08 01:24:18;;;;;;;20.30;10.10;;;3.60;99.90;;;;;;4977981;28;20094;-72
2021/12/08 01:26:44;;;;;;;24.33;9.05;;;3.60;99.90;;;;;;4979035;28;20074;-73
2021/12/08 01:29:10;;;;;;;16.33;9.82;;;3.60;99.90;;;;;;4975193;28;20030;-73
2021/12/08 01:31:40;;;;;;;20.73;8.77;;;3.60;99.90;;;;;;4975129;28;20023;-72
2021/12/08 01:34:06;;;;;;;17.15;9.30;;;3.60;99.90;;;;;;4975065;28;20120;-72
2021/12/08 01:36:32;;;;;;;21.35;8.90;;;3.60;99.90;;;;;;4974829;28;20039;-73
2021/12/08 01:38:57;;;;;;;17.63;9.40;;;3.60;99.90;;;;;;4974912;28;20509;-73
2021/12/08 01:41:24;;;;;;;21.02;9.80;;;3.60;99.90;;;;;;4975323;28;20490;-73
2021/12/08 01:46:53;;;;;;;23.88;9.90;;;3.60;99.90;;;;;;4972980;28;20083;-73
2021/12/08 01:49:19;;;;;;;19.63;10.13;;;3.60;99.90;;;;;;4975148;28;20389;-73
2021/12/08 01:51:45;;;;;;;17.23;9.60;;;3.60;99.90;;;;;;4973384;28;20294;-73
2021/12/08 01:54:11;;;;;;;22.38;10.30;;;3.60;99.90;;;;;;4974974;28;20535;-73
2021/12/08 01:56:37;;;;;;;20.30;9.70;;;3.70;99.90;;;;;;4973358;28;20026;-73
2021/12/08 01:59:06;;;;;;;20.33;9.65;;;3.60;99.90;;;;;;4975032;28;20392;-73
2021/12/08 02:01:34;;;;;;;17.20;9.02;;;3.70;99.90;;;;;;4974685;28;20043;-73
2021/12/08 02:04:04;;;;;;;16.83;8.73;;;3.70;99.90;;;;;;4974755;28;20120;-74
2021/12/08 02:06:36;;;;;;;20.48;9.13;;;3.70;99.90;;;;;;4974926;28;20031;-73
2021/12/08 02:09:06;;;;;;;17.92;8.65;;;3.70;99.90;;;;;;4974448;28;20035;-72
2021/12/08 02:11:32;;;;;;;17.17;8.30;;;3.70;99.90;;;;;;4974314;28;20027;-73
2021/12/08 02:14:01;;;;;;;21.40;8.95;;;3.70;99.90;;;;;;4973031;28;20023;-73
2021/12/08 02:16:28;;;;;;;22.08;7.70;;;3.80;99.90;;;;;;4972822;28;20038;-73
2021/12/08 02:18:54;;;;;;;17.92;8.48;;;3.80;99.90;;;;;;4976378;28;20081;-73
2021/12/08 02:21:26;;;;;;;16.67;8.38;;;3.80;99.90;;;;;;4974658;28;20367;-73
2021/12/08 02:23:52;;;;;;;18.70;8.45;;;3.80;99.90;;;;;;4974752;28;20526;-74
2021/12/08 02:26:18;;;;;;;16.58;8.05;;;3.80;99.90;;;;;;4972997;28;20042;-73
2021/12/08 02:28:44;;;;;;;16.65;8.13;;;3.80;99.90;;;;;;4975311;28;20392;-73
2021/12/08 02:31:13;;;;;;;18.05;7.38;;;3.70;99.90;;;;;;4974231;28;20030;-72
2021/12/08 02:49:49;;;;;;;14.55;7.40;;;3.40;99.90;;;;;;4974798;28;20326;-73
2021/12/08 02:52:15;;;;;;;17.55;7.63;;;3.40;99.90;;;;;;4975069;28;20038;-73
2021/12/08 02:54:50;;;;;;;16.42;7.35;;;3.30;99.90;;;;;;4973744;28;20031;-73
2021/12/08 02:57:18;;;;;;;12.98;6.72;;;3.30;99.90;;;;;;4975526;28;20421;-73
2021/12/08 02:59:45;;;;;;;15.95;7.00;;;3.20;99.90;;;;;;4975200;28;20073;-74
2021/12/08 03:02:12;;;;;;;15.50;7.22;;;3.10;99.90;;;;;;4975453;28;20389;-73
2021/12/08 03:04:38;;;;;;;13.10;6.88;;;3.10;99.90;;;;;;4975343;28;20094;-73
2021/12/08 03:07:05;;;;;;;13.73;6.95;;;3.10;99.90;;;;;;4974744;28;20030;-73
2021/12/08 03:09:36;;;;;;;17.02;7.10;;;3.00;99.90;;;;;;4974200;28;20027;-73
2021/12/08 03:12:02;;;;;;;16.92;8.68;;;3.00;99.90;;;;;;4975032;28;20081;-73
2021/12/08 03:14:30;;;;;;;15.30;7.10;;;2.90;99.90;;;;;;4977200;28;20027;-73
2021/12/08 03:17:02;;;;;;;19.60;7.10;;;2.90;99.90;;;;;;4974426;28;20065;-73
2021/12/08 03:19:30;;;;;;;16.73;6.60;;;2.90;99.90;;;;;;4976710;28;20034;-73
2021/12/08 03:21:56;;;;;;;16.70;5.78;;;2.80;99.90;;;;;;4981918;28;20023;-73
2021/12/08 03:27:05;;;;;;;17.83;6.07;;;2.80;99.90;;;;;;4973903;28;20038;-73
2021/12/08 03:29:46;;;;;;;13.75;6.10;;;2.70;99.90;;;;;;4976644;28;20034;-73
2021/12/08 03:32:15;;;;;;;11.53;5.93;;;2.70;99.90;;;;;;4977921;28;20054;-73
2021/12/08 03:34:52;;;;;;;17.58;6.63;;;2.70;99.90;;;;;;4976658;28;20310;-73
2021/12/08 03:37:33;;;;;;;12.88;6.63;;;2.60;99.90;;;;;;4978298;28;20046;-73
2021/12/08 03:40:02;;;;;;;10.05;5.68;;;2.60;99.90;;;;;;4977900;28;20023;-73
2021/12/08 03:42:29;;;;;;;13.52;6.20;;;2.50;99.90;;;;;;4976065;28;20033;-73
2021/12/08 03:44:57;;;;;;;14.82;6.80;;;2.50;99.90;;;;;;4975965;28;20031;-73
2021/12/08 03:47:29;;;;;;;11.55;6.15;;;2.50;99.90;;;;;;4977292;28;20042;-74
2021/12/08 03:49:58;;;;;;;16.85;6.97;;;2.50;99.90;;;;;;4977193;28;20420;-74
2021/12/08 03:52:23;;;;;;;15.32;6.32;;;2.50;99.90;;;;;;4977332;28;20026;-74
2021/12/08 03:54:49;;;;;;;17.90;6.38;;;2.50;99.90;;;;;;4977007;28;20034;-73
2021/12/08 03:57:15;;;;;;;14.85;6.68;;;2.50;99.90;;;;;;4977289;28;20023;-74
2021/12/08 03:59:40;;;;;;;17.50;6.63;;;2.50;99.90;;;;;;4977871;28;20042;-74
2021/12/08 04:02:06;;;;;;;15.13;6.72;;;2.50;99.90;;;;;;4977384;28;20033;-74
2021/12/08 04:04:40;;;;;;;16.77;7.38;;;2.50;99.90;;;;;;4977416;28;20464;-75
2021/12/08 04:07:07;;;;;;;19.55;6.40;;;2.50;99.90;;;;;;4977912;28;20479;-74
2021/12/08 04:09:39;;;;;;;17.15;7.05;;;2.50;99.90;;;;;;4977388;28;20472;-75
2021/12/08 04:12:05;;;;;;;13.32;7.28;;;2.50;99.90;;;;;;4976584;28;20039;-74
2021/12/08 04:14:34;;;;;;;12.20;6.50;;;2.40;99.90;;;;;;4988265;28;20192;-74
2021/12/08 04:17:16;;;;;;;16.35;8.02;;;2.50;99.90;;;;;;4976462;28;20027;-74
2021/12/08 04:19:43;;;;;;;12.35;6.88;;;2.40;99.90;;;;;;4975345;28;20023;-74
2021/12/08 04:22:20;;;;;;;13.68;6.80;;;2.40;99.90;;;;;;4977555;28;20122;-74
2021/12/08 04:24:48;;;;;;;12.20;7.85;;;2.40;99.90;;;;;;4977112;28;20102;-74
2021/12/08 04:27:18;;;;;;;14.13;7.82;;;2.40;99.90;;;;;;4976423;28;20076;-74
2021/12/08 04:29:48;;;;;;;11.10;7.10;;;2.40;99.90;;;;;;4974380;28;20038;-75
2021/12/08 04:32:16;;;;;;;14.02;6.95;;;2.40;99.90;;;;;;4976671;28;20026;-75
2021/12/08 04:34:45;;;;;;;11.38;6.40;;;2.40;99.90;;;;;;4974347;28;20046;-74
2021/12/08 04:37:22;;;;;;;17.83;7.28;;;2.40;99.90;;;;;;5072415;23;20045;-69
2021/12/08 04:40:14;;;;;;;13.45;6.07;;;2.40;99.90;;;;;;5056005;28;20104;-69
2021/12/08 04:45:14;;;;;;;15.65;6.47;;;2.40;99.90;;;;;;5057579;28;20386;-70
2021/12/08 04:48:11;;;;;;;10.85;6.25;;;2.40;99.90;;;;;;5044339;28;20083;-71
2021/12/08 04:51:06;;;;;;;12.43;6.63;;;2.40;99.90;;;;;;5038101;28;20101;-70
2021/12/08 05:00:18;;;;;;;13.23;6.70;;;2.40;99.90;;;;;;5037403;28;20107;-71
2021/12/08 05:04:52;;;;;;;10.98;6.93;;;2.40;99.90;;;;;;5038283;28;20032;-71
2021/12/08 05:10:16;;;;;;;16.45;6.75;;;2.50;99.90;;;;;;5038892;28;20040;-71
2021/12/08 05:12:43;;;;;;;13.73;6.78;;;2.50;99.90;;;;;;5038724;28;20081;-70
2021/12/08 05:15:17;;;;;;;15.32;6.57;;;2.50;99.90;;;;;;5040082;28;20056;-70
2021/12/08 05:17:51;;;;;;;14.27;6.03;;;2.50;99.90;;;;;;5040735;28;20021;-70
2021/12/08 05:20:25;;;;;;;16.05;6.65;;;2.50;99.90;;;;;;5042844;28;20383;-70
2021/12/08 05:22:57;;;;;;;13.98;6.65;;;2.50;99.90;;;;;;5043374;28;20036;-70
2021/12/08 05:25:29;;;;;;;16.10;6.88;;;2.50;99.90;;;;;;5043259;28;20047;-70
2021/12/08 05:27:58;;;;;;;13.77;6.60;;;2.60;99.90;;;;;;5037117;28;20079;-71
2021/12/08 05:30:29;;;;;;;15.77;6.72;;;2.60;99.90;;;;;;5036349;28;20108;-70
2021/12/08 05:32:56;;;;;;;13.25;7.10;;;2.60;99.90;;;;;;5036233;28;20028;-70
2021/12/08 05:35:23;;;;;;;12.77;6.45;;;2.70;99.90;;;;;;5036678;28;20025;-70
2021/12/08 05:37:49;;;;;;;16.17;7.13;;;2.70;99.90;;;;;;5036109;28;20033;-70
2021/12/08 05:40:23;;;;;;;11.65;6.80;;;2.70;99.90;;;;;;5038760;28;20048;-70
2021/12/08 05:42:49;;;;;;;14.23;6.85;;;2.70;99.90;;;;;;5037240;28;20363;-70
2021/12/08 05:45:17;;;;;;;12.07;5.78;;;2.80;99.90;;;;;;5035533;28;20028;-71
2021/12/08 05:47:44;;;;;;;13.27;6.82;;;2.80;99.90;;;;;;5035644;28;20032;-70
2021/12/08 05:50:14;;;;;;;16.05;7.18;;;2.80;99.90;;;;;;5034814;28;20463;-69
2021/12/08 05:52:40;;;;;;;15.63;6.25;;;2.80;99.90;;;;;;5035418;28;20036;-70
2021/12/08 05:55:07;;;;;;;13.70;6.40;;;2.90;99.90;;;;;;5035723;28;20017;-70
2021/12/08 05:57:38;;;;;;;16.70;6.82;;;2.90;99.90;;;;;;5040174;28;20026;-70
2021/12/08 06:00:07;;;;;;;21.38;6.63;;;3.00;99.90;;;;;;5038093;28;20032;-69
2021/12/08 06:02:36;;;;;;;16.38;7.35;;;3.00;99.90;;;;;;5035097;28;20128;-69
2021/12/08 06:05:05;;;;;;;13.95;7.07;;;3.10;99.90;;;;;;5036128;28;20079;-68
2021/12/08 06:07:31;;;;;;;11.15;6.32;;;3.20;99.90;;;;;;5036068;28;20040;-69
2021/12/08 06:10:02;;;;;;;14.27;5.70;;;3.20;99.90;;;;;;5035702;28;20029;-69
2021/12/08 06:12:28;;;;;;;11.02;5.85;;;3.20;99.90;;;;;;5035011;28;20469;-68
2021/12/08 06:14:55;;;;;;;14.18;5.90;;;3.30;99.90;;;;;;5035710;28;20037;-69
2021/12/08 06:17:25;;;;;;;9.80;5.82;;;3.30;99.90;;;;;;5035134;28;20013;-69
2021/12/08 06:19:51;;;;;;;17.08;6.18;;;3.40;99.90;;;;;;5034408;28;20505;-70
2021/12/08 06:22:20;;;;;;;12.20;6.05;;;3.50;99.90;;;;;;5036063;28;20075;-70
2021/12/08 06:24:47;;;;;;;12.23;6.15;;;3.50;99.90;;;;;;5034888;28;20041;-71
2021/12/08 06:27:13;;;;;;;10.38;5.40;;;3.50;99.90;;;;;;5034879;28;20446;-71
2021/12/08 06:29:41;;;;;;;10.23;5.60;;;3.50;99.90;;;;;;5035257;28;20537;-71
2021/12/08 06:32:08;;;;;;;8.30;5.30;;;3.50;99.90;;;;;;5035789;28;20146;-71
2021/12/08 06:34:36;;;;;;;9.85;5.10;;;3.50;99.90;;;;;;5034977;28;20073;-71
2021/12/08 06:37:07;;;;;;;9.07;5.43;;;3.50;99.90;;;;;;5034851;28;20029;-71
2021/12/08 06:39:38;;;;;;;10.80;6.28;;;3.50;99.90;;;;;;5035371;28;20490;-71
2021/12/08 06:42:08;;;;;;;15.02;5.43;;;3.50;99.90;;;;;;5035260;28;20034;-71
2021/12/08 06:44:36;;;;;;;11.00;5.53;;;3.60;99.90;;;;;;5035537;28;20467;-71
2021/12/08 06:47:05;;;;;;;11.18;5.68;;;3.60;99.90;;;;;;5023761;28;20117;-71
2021/12/08 06:49:32;;;;;;;10.55;5.97;;;3.60;99.90;;;;;;5021164;28;20040;-71
2021/12/08 06:52:04;;;;;;;15.55;6.78;;;3.60;99.90;;;;;;5028406;28;20037;-70
2021/12/08 06:54:37;;;;;;;12.68;7.22;;;3.50;99.90;;;;;;5020412;28;20451;-71
2021/12/08 06:57:11;;;;;;;7.90;5.22;;;3.60;99.90;;;;;;5017652;28;20032;-71
2021/12/08 06:59:51;;;;;;;13.82;6.18;;;3.60;99.90;;;;;;5024545;28;20379;-71
2021/12/08 07:02:33;;;;;;;10.82;5.93;;;3.60;99.90;;;;;;5020970;28;20387;-71
2021/12/08 07:05:26;;;;;;;11.40;5.50;;;3.70;99.90;;;;;;5038606;28;20060;-71
2021/12/08 07:07:45;;;;;;;12.30;5.40;;;3.70;99.90;;;;;;5043309;28;20172;-71
2021/12/08 07:10:19;;;;;;;13.35;5.53;;;3.70;99.90;;;;;;5038777;28;20080;-70
2021/12/08 07:12:50;;;;;;;13.05;5.68;;;3.70;99.90;;;;;;5040278;28;20329;-71
2021/12/08 07:15:50;;;;;;;10.80;5.50;;;3.80;99.90;;;;;;5041243;28;20021;-71
2021/12/08 07:18:25;;;;;;;9.40;4.47;;;3.80;99.90;;;;;;5038806;28;20033;-70
2021/12/08 07:20:57;;;;;;;10.68;4.78;;;3.70;99.90;;;;;;5039610;28;20026;-71
2021/12/08 07:23:38;;;;;;;7.78;5.25;;;3.80;99.90;;;;;;5039984;28;20132;-70
2021/12/08 07:26:11;;;;;;;13.65;5.20;;;3.90;99.90;;;;;;5038898;28;20049;-72
2021/12/08 07:28:40;;;;;;;8.15;4.82;;;3.80;99.90;;;;;;5039928;28;20391;-72
2021/12/08 07:31:11;;;;;;;11.73;5.15;;;3.80;99.90;;;;;;5038769;28;20386;-72
2021/12/08 07:33:38;;;;;;;8.65;5.35;;;3.80;99.90;;;;;;5041210;28;20096;-72
2021/12/08 07:36:10;;;;;;;11.50;4.72;;;3.90;99.90;;;;;;5037731;28;20029;-72
2021/12/08 07:38:37;;;;;;;7.38;5.00;;;3.90;99.90;;;;;;5037310;28;20055;-72
2021/12/08 07:41:29;;;;;;;8.93;4.93;;;3.90;99.90;;;;;;5038602;28;20029;-71
2021/12/08 07:43:57;;;;;;;10.20;5.50;;;4.00;99.90;;;;;;5038947;28;20028;-72
2021/12/08 07:46:48;;;;;;;8.43;4.80;;;3.90;99.90;;;;;;5038348;28;20026;-72
2021/12/08 07:49:19;;;;;;;6.10;4.57;;;3.90;99.90;;;;;;5039185;28;20030;-74
2021/12/08 07:51:48;;;;;;;9.35;4.90;;;3.90;99.90;;;;;;5040501;28;20033;-71
2021/12/08 07:54:15;;;;;;;8.30;4.45;;;4.00;99.90;;;;;;5042767;28;20037;-72
2021/12/08 07:56:43;;;;;;;9.48;5.05;;;4.00;99.90;;;;;;5038725;28;20026;-72
2021/12/08 07:59:14;;;;;;;10.25;4.85;;;4.00;99.90;;;;;;5041499;28;20076;-72
2021/12/08 08:01:45;;;;;;;8.60;4.60;;;3.90;99.90;;;;;;5042013;28;20031;-73
2021/12/08 08:04:13;;;;;;;9.23;4.68;;;4.00;99.90;;;;;;5043701;28;20064;-73
2021/12/08 08:06:42;;;;;;;12.65;4.60;;;4.00;99.90;;;;;;5038674;28;20025;-71
2021/12/08 08:09:14;;;;;;;7.55;4.88;;;4.10;99.90;;;;;;5043124;28;20037;-71
2021/12/08 08:11:43;;;;;;;7.68;4.30;;;4.10;99.90;;;;;;5041839;28;20082;-71
2021/12/08 08:14:12;;;;;;;12.00;4.50;;;4.10;99.90;;;;;;5049164;28;20029;-73
2021/12/08 08:16:40;;;;;;;8.50;4.32;;;4.20;99.90;;;;;;5046271;28;20022;-70
2021/12/08 08:19:13;;;;;;;8.30;4.60;;;4.20;99.90;;;;;;5041608;28;20028;-72
2021/12/08 08:21:45;;;;;;;8.23;4.75;;;4.20;99.90;;;;;;5038511;28;20028;-73
2021/12/08 08:24:12;;;;;;;9.05;5.25;;;4.20;99.90;;;;;;5041289;28;20032;-71
2021/12/08 08:26:39;;;;;;;9.60;5.57;;;4.20;99.90;;;;;;5042596;28;20090;-72
2021/12/08 08:29:08;;;;;;;5.65;4.22;;;4.20;99.90;;;;;;5039071;28;20037;-71
2021/12/08 08:31:48;;;;;;;5.90;4.38;;;4.30;99.90;;;;;;5039394;28;20501;-72
2021/12/08 08:34:14;;;;;;;7.35;4.38;;;4.30;99.90;;;;;;5044817;28;20021;-70
2021/12/08 08:36:43;;;;;;;5.00;4.00;;;4.30;99.90;;;;;;5041040;28;20040;-71
2021/12/08 08:39:12;;;;;;;6.45;4.32;;;4.30;99.90;;;;;;5037475;28;20024;-71
2021/12/08 08:42:05;;;;;;;6.57;4.53;;;4.30;99.90;;;;;;5037010;28;20034;-72
2021/12/08 08:44:58;;;;;;;8.43;4.53;;;4.40;99.90;;;;;;5042609;28;20069;-72
2021/12/08 08:47:28;;;;;;;6.10;4.28;;;4.40;99.90;;;;;;5037574;28;20030;-72
2021/12/08 08:49:54;;;;;;;7.28;4.65;;;4.40;99.90;;;;;;5040572;28;20089;-73
2021/12/08 08:52:31;;;;;;;8.82;4.63;;;4.50;99.90;;;;;;5040760;28;20483;-72
2021/12/08 08:55:01;;;;;;;6.72;4.78;;;4.50;99.90;;;;;;5035736;28;20536;-73
2021/12/08 08:57:36;;;;;;;7.32;4.65;;;4.50;99.90;;;;;;5037058;28;20071;-72
2021/12/08 09:00:14;;;;;;;7.40;4.55;;;4.50;99.90;;;;;;5035109;28;20041;-71
2021/12/08 09:02:41;;;;;;;6.85;4.72;;;4.50;99.90;;;;;;5036991;28;20040;-71
2021/12/08 09:05:20;;;;;;;10.07;5.22;;;4.50;99.90;;;;;;5037132;28;20158;-72
2021/12/08 09:07:51;;;;;;;12.20;4.50;;;4.50;99.90;;;;;;5037536;28;20327;-73
2021/12/08 09:10:43;;;;;;;7.82;4.63;;;4.60;99.90;;;;;;5037229;28;20080;-72
2021/12/08 09:13:15;;;;;;;9.88;4.68;;;4.60;99.90;;;;;;5037492;28;20030;-72
2021/12/08 09:15:52;;;;;;;6.43;5.10;;;4.60;99.90;;;;;;5037786;28;20025;-71
2021/12/08 09:18:22;;;;;;;13.75;4.88;;;4.60;99.90;;;;;;5039476;28;20029;-73
2021/12/08 09:20:55;;;;;;;9.05;4.78;;;4.70;99.90;;;;;;5040566;28;20033;-71
2021/12/08 09:23:30;;;;;;;9.70;5.25;;;4.60;99.90;;;;;;5044231;28;20049;-71
2021/12/08 09:26:05;;;;;;;7.85;5.18;;;4.60;99.90;;;;;;5035311;28;20068;-71
2021/12/08 09:28:37;;;;;;;8.32;4.93;;;4.70;99.90;;;;;;5038695;28;20022;-70
2021/12/08 09:31:16;;;;;;;9.52;4.85;;;4.80;99.90;;;;;;5036671;28;20026;-71
2021/12/08 09:33:51;;;;;;;9.45;5.00;;;4.90;99.90;;;;;;5039164;28;20014;-71
2021/12/08 09:36:21;;;;;;;11.73;4.78;;;4.80;99.90;;;;;;5039676;28;20036;-71
2021/12/08 09:38:59;;;;;;;7.63;4.70;;;4.80;99.90;;;;;;5044301;28;20029;-72
2021/12/08 09:41:41;;;;;;;14.05;5.53;;;4.90;99.90;;;;;;5044022;28;20029;-71
2021/12/08 09:44:15;;;;;;;7.60;4.80;;;4.90;99.90;;;;;;5042911;28;20055;-72
2021/12/08 09:46:43;;;;;;;9.52;4.95;;;4.90;99.90;;;;;;5036621;28;20025;-69
2021/12/08 09:49:11;;;;;;;6.38;4.15;;;4.90;99.90;;;;;;5036045;28;20081;-71
2021/12/08 09:51:37;;;;;;;6.95;4.53;;;5.00;99.90;;;;;;5034532;28;20071;-71
2021/12/08 09:54:03;;;;;;;8.75;4.90;;;4.90;99.90;;;;;;5035184;28;20044;-72
2021/12/08 09:56:30;;;;;;;8.00;5.03;;;5.00;99.90;;;;;;5035038;28;20030;-71
2021/12/08 09:58:56;;;;;;;9.32;4.90;;;5.00;99.90;;;;;;5036801;28;20024;-71
2021/12/08 10:01:23;;;;;;;5.80;4.38;;;5.00;99.90;;;;;;5037793;28;20044;-72
2021/12/08 10:03:52;;;;;;;7.40;4.85;;;5.10;99.90;;;;;;5039675;28;20074;-72
2021/12/08 10:06:20;;;;;;;9.23;4.93;;;5.10;99.90;;;;;;5036645;28;20025;-73
2021/12/08 10:08:47;;;;;;;13.98;5.13;;;5.10;99.90;;;;;;5033826;28;20170;-72
2021/12/08 10:11:13;;;;;;;10.05;4.75;;;5.10;99.90;;;;;;5034137;28;20045;-72
2021/12/08 10:13:40;;;;;;;6.25;4.65;;;5.00;99.90;;;;;;5034746;28;20026;-72
2021/12/08 10:16:08;;;;;;;9.85;4.75;;;5.00;99.90;;;;;;5033845;28;20045;-72
2021/12/08 10:18:34;;;;;;;14.30;5.30;;;5.10;99.90;;;;;;5034557;28;20029;-72
2021/12/08 10:20:59;;;;;;;10.00;5.00;;;5.10;99.90;;;;;;5034710;28;20035;-72
2021/12/08 10:23:28;;;;;;;10.10;5.30;;;5.10;99.90;;;;;;5034653;28;20030;-71
2021/12/08 10:26:01;;;;;;;9.73;4.90;;;5.10;99.90;;;;;;5033112;28;20021;-71
2021/12/08 10:28:31;;;;;;;8.98;4.70;;;5.10;99.90;;;;;;5039737;28;20037;-71
2021/12/08 10:31:19;;;;;;;12.13;5.30;;;5.20;99.90;;;;;;5041044;28;20125;-71
2021/12/08 10:34:03;;;;;;;8.25;4.65;;;5.20;99.90;;;;;;5034561;28;20103;-70
2021/12/08 10:39:28;;;;;;;8.82;5.40;;;5.30;99.90;;;;;;4993210;28;20026;-53
2021/12/08 10:42:24;;;;;;;8.27;5.05;;;5.20;99.90;;;;;;4983973;28;20031;-55
2021/12/08 10:47:47;;;;;;;10.02;5.10;;;5.30;99.90;;;;;;4996602;28;20031;-55
2021/12/08 10:55:55;;;;;;;8.48;4.47;;;5.50;99.90;;;;;;4992333;28;20174;-58
2021/12/08 10:58:27;;;;;;;7.88;5.05;;;5.50;99.90;;;;;;4992274;28;20022;-54
2021/12/08 11:00:55;;;;;;;10.35;5.43;;;5.50;99.90;;;;;;4992667;28;20026;-53
2021/12/08 11:03:21;;;;;;;7.72;4.78;;;5.50;99.90;;;;;;4992475;28;20029;-55
2021/12/08 11:05:48;;;;;;;6.55;5.20;;;5.50;99.90;;;;;;4990911;28;20137;-56
2021/12/08 11:08:21;;;;;;;21.80;7.88;;;5.50;99.90;;;;;;4990804;28;20030;-53
2021/12/08 11:10:48;;;;;;;9.60;5.30;;;5.50;99.90;;;;;;4992107;28;20029;-55
2021/12/08 11:13:17;;;;;;;14.38;6.60;;;5.50;99.90;;;;;;4992402;28;20030;-55
2021/12/08 11:15:43;;;;;;;10.85;5.63;;;5.60;99.90;;;;;;4992475;28;20540;-51
2021/12/08 11:18:23;;;;;;;11.95;5.82;;;5.70;99.90;;;;;;4992342;28;20510;-54
2021/12/08 11:20:59;;;;;;;8.45;5.15;;;5.70;99.90;;;;;;4992387;28;20031;-54
2021/12/08 11:23:42;;;;;;;11.05;5.20;;;5.70;99.90;;;;;;4992730;28;20031;-52
2021/12/08 11:26:25;;;;;;;10.93;4.85;;;5.70;99.90;;;;;;4992346;28;20031;-53
2021/12/08 11:29:00;;;;;;;6.40;5.20;;;5.70;99.90;;;;;;4992311;28;20022;-53
2021/12/08 11:31:35;;;;;;;12.45;5.40;;;5.70;99.90;;;;;;4992439;28;20113;-54
2021/12/08 11:34:05;;;;;;;8.50;4.88;;;5.70;99.90;;;;;;4992165;28;20029;-52
2021/12/08 11:36:34;;;;;;;9.55;5.90;;;5.70;99.90;;;;;;4992011;28;20492;-56
2021/12/08 11:39:07;;;;;;;9.20;6.03;;;5.70;99.90;;;;;;4992120;28;20464;-57
2021/12/08 11:41:37;;;;;;;9.77;5.72;;;5.80;99.90;;;;;;4991120;28;20443;-53
2021/12/08 11:44:08;;;;;;;12.70;5.13;;;5.80;99.90;;;;;;4993164;28;20035;-57
2021/12/08 11:46:39;;;;;;;11.80;5.80;;;5.90;99.90;;;;;;4992830;28;20037;-55
2021/12/08 11:49:07;;;;;;;;;;;6.00;99.90;;;;;;4994634;28;20146;-54
2021/12/08 11:51:55;;;;;;;11.63;5.25;;;6.10;99.90;;;;;;4995724;28;19909;-56
2021/12/08 11:54:39;;;;;;;13.07;5.82;;;6.10;99.90;;;;;;4995769;28;20053;-57
2021/12/08 11:57:36;;;;;;;5.88;4.50;;;6.10;99.90;;;;;;4995807;28;20026;-56
2021/12/08 12:00:26;;;;;;;14.15;6.03;;;6.10;99.90;;;;;;4992191;28;20407;-55
2021/12/08 12:02:58;;;;;;;9.60;5.20;;;6.10;99.90;;;;;;4996107;28;20406;-56
2021/12/08 12:05:31;;;;;;;11.00;5.80;;;6.10;99.90;;;;;;4995569;28;20034;-54
2021/12/08 12:07:57;;;;;;;9.50;5.60;;;6.00;99.90;;;;;;4996485;28;20155;-57
2021/12/08 12:10:26;;;;;;;13.93;5.80;;;6.00;99.90;;;;;;4996286;28;20038;-55
2021/12/08 12:12:52;;;;;;;11.18;5.85;;;6.10;99.90;;;;;;4996138;28;20034;-53
2021/12/08 12:15:21;;;;;;;13.68;5.93;;;6.10;99.90;;;;;;4996268;28;20439;-54
2021/12/08 12:17:47;;;;;;;15.18;6.50;;;6.00;99.90;;;;;;4996283;28;20114;-55
2021/12/08 12:20:24;;;;;;;11.18;6.00;;;6.10;99.90;;;;;;4996311;28;20022;-55
2021/12/08 12:23:20;;;;;;;9.52;5.00;;;6.00;99.90;;;;;;4996082;28;20027;-55
2021/12/08 12:26:01;;;;;;;13.10;6.25;;;6.00;99.90;;;;;;4997801;28;20022;-56
2021/12/08 12:28:38;;;;;;;12.18;5.20;;;6.00;99.90;;;;;;4996035;28;20061;-54
2021/12/08 12:31:25;;;;;;;10.95;6.40;;;6.00;99.90;;;;;;4995773;28;20431;-56
2021/12/08 12:33:52;;;;;;;10.82;5.90;;;6.00;99.90;;;;;;4995733;28;20033;-56
2021/12/08 12:36:21;;;;;;;13.68;5.90;;;6.00;99.90;;;;;;4994203;28;20038;-54
2021/12/08 12:38:47;;;;;;;9.40;6.80;;;6.00;99.90;;;;;;4993939;28;20428;-54
2021/12/08 12:41:43;;;;;;;12.40;6.40;;;5.90;99.90;;;;;;4995223;28;20060;-55
2021/12/08 12:44:23;;;;;;;12.48;6.03;;;5.90;99.90;;;;;;4987024;28;20035;-53
2021/12/08 12:47:09;;;;;;;11.40;6.38;;;6.00;99.90;;;;;;4995262;28;20447;-56
2021/12/08 12:49:36;;;;;;;9.98;5.68;;;6.10;99.90;;;;;;4995990;28;20084;-56
2021/12/08 12:52:27;;;;;;;15.52;6.07;;;6.20;99.90;;;;;;4994568;28;20038;-55
2021/12/08 12:55:10;;;;;;;6.82;5.25;;;6.30;99.90;;;;;;4994682;28;20073;-56
2021/12/08 12:58:01;;;;;;;12.40;6.22;;;6.30;99.90;;;;;;4994070;28;20030;-55
2021/12/08 13:00:29;;;;;;;13.02;6.30;;;6.30;99.90;;;;;;4985673;28;20026;-54
2021/12/08 13:02:54;;;;;;;15.95;6.35;;;6.20;99.90;;;;;;4994109;28;20057;-56
2021/12/08 13:05:20;;;;;;;7.47;5.15;;;6.10;99.90;;;;;;4994117;28;20069;-57
2021/12/08 13:07:58;;;;;;;11.93;6.90;;;6.10;99.90;;;;;;4994598;28;20124;-55
2021/12/08 13:10:34;;;;;;;10.93;5.60;;;6.00;99.90;;;;;;4994772;28;20113;-55
2021/12/08 13:13:10;;;;;;;14.40;6.18;;;6.10;99.90;;;;;;4995251;28;20026;-54
2021/12/08 13:15:38;;;;;;;9.80;5.93;;;6.10;99.90;;;;;;4993706;28;20065;-53
2021/12/08 13:18:09;;;;;;;10.30;6.00;;;6.10;99.90;;;;;;4974867;28;20046;-53
2021/12/08 13:20:36;;;;;;;12.65;5.57;;;6.10;99.90;;;;;;4975132;28;20023;-55
2021/12/08 13:23:08;;;;;;;11.73;6.15;;;6.10;99.90;;;;;;4973723;28;20459;-53
2021/12/08 13:28:16;;;;;;;10.23;6.25;;;6.20;99.90;;;;;;4975158;28;20055;-55
2021/12/08 13:31:56;;;;;;;14.60;5.63;;;6.20;99.90;;;;;;4993579;28;20041;-55
2021/12/08 13:34:09;;;;;;;10.90;5.85;;;6.20;99.90;;;;;;4974745;28;20034;-56
2021/12/08 13:36:43;;;;;;;9.82;5.95;;;6.20;99.90;;;;;;4991320;28;20046;-56
2021/12/08 13:39:28;;;;;;;9.80;5.97;;;6.30;99.90;;;;;;4976743;28;20022;-53
2021/12/08 13:42:01;;;;;;;11.20;6.32;;;6.20;99.90;;;;;;4975740;28;20077;-54
2021/12/08 13:44:36;;;;;;;9.13;5.90;;;6.20;99.90;;;;;;4976083;28;20035;-53
2021/12/08 13:47:21;;;;;;;12.25;5.18;;;6.20;99.90;;;;;;4975461;28;20492;-53
2021/12/08 13:49:50;;;;;;;14.75;5.28;;;6.10;99.90;;;;;;4978178;28;20037;-55
2021/12/08 13:52:20;;;;;;;14.23;6.15;;;6.10;99.90;;;;;;4994064;28;20216;-56
2021/12/08 13:54:49;;;;;;;10.87;5.87;;;6.10;99.90;;;;;;4993942;28;20049;-56
2021/12/08 13:57:36;;;;;;;7.85;5.70;;;6.00;99.90;;;;;;4994016;28;20018;-54
2021/12/08 14:00:13;;;;;;;10.43;5.90;;;6.00;99.90;;;;;;4995587;28;20045;-57
2021/12/08 14:02:39;;;;;;;11.15;6.05;;;5.90;99.90;;;;;;4994671;28;20030;-54